createdAt,value
2018-02-20T00:02:03.429Z,1.60
2018-02-20T00:04:32.877Z,1.50
2018-02-20T00:07:02.108Z,1.50
2018-02-20T00:09:31.453Z,1.60
2018-02-20T00:12:00.676Z,1.50
2018-02-20T00:14:30.834Z,1.50
2018-02-20T00:17:00.071Z,1.40
2018-02-20T00:19:29.692Z,1.50
2018-02-20T00:21:59.066Z,1.40
2018-02-20T00:24:28.411Z,1.50
2018-02-20T00:26:57.646Z,1.40
2018-02-20T00:29:26.949Z,1.30
2018-02-20T00:31:56.181Z,1.40
2018-02-20T00:34:25.496Z,1.40
2018-02-20T00:36:54.721Z,1.30
2018-02-20T00:39:24.028Z,1.30
2018-02-20T00:41:53.271Z,1.30
2018-02-20T00:44:22.604Z,1.20
2018-02-20T00:46:51.833Z,1.20
2018-02-20T00:49:21.827Z,1.10
2018-02-20T00:51:51.132Z,1.10
2018-02-20T00:54:20.372Z,1.10
2018-02-20T00:56:49.676Z,1.10
2018-02-20T00:59:19.321Z,1.10
2018-02-20T01:01:48.636Z,1.10
2018-02-20T01:04:17.857Z,1.10
2018-02-20T01:06:47.259Z,1.10
2018-02-20T01:09:16.468Z,1.10
2018-02-20T01:11:45.844Z,1.00
2018-02-20T01:14:15.069Z,0.90
2018-02-20T01:16:44.440Z,0.90
2018-02-20T01:19:13.677Z,0.80
2018-02-20T01:21:42.901Z,0.80
2018-02-20T01:24:12.209Z,0.90
2018-02-20T01:26:41.660Z,0.80
2018-02-20T01:29:11.770Z,0.80
2018-02-20T01:31:41.165Z,0.80
2018-02-20T01:34:10.471Z,0.80
2018-02-20T01:36:39.791Z,0.80
2018-02-20T01:39:09.220Z,0.80
2018-02-20T01:41:38.480Z,0.80
2018-02-20T01:44:07.985Z,0.80
2018-02-20T01:46:37.925Z,0.80
2018-02-20T01:49:07.231Z,0.80
2018-02-20T01:51:37.230Z,0.70
2018-02-20T01:54:06.621Z,0.70
2018-02-20T01:56:35.871Z,0.70
2018-02-20T01:59:05.137Z,0.70
2018-02-20T02:01:34.416Z,0.70
2018-02-20T02:04:03.636Z,0.60
2018-02-20T02:06:33.719Z,0.60
2018-02-20T02:09:02.945Z,0.60
2018-02-20T02:11:32.260Z,0.60
2018-02-20T02:14:01.496Z,0.60
2018-02-20T02:16:30.939Z,0.60
2018-02-20T02:19:00.174Z,0.60
2018-02-20T02:21:29.560Z,0.60
2018-02-20T02:23:59.577Z,0.60
2018-02-20T02:26:28.775Z,0.50
2018-02-20T02:28:58.848Z,0.50
2018-02-20T02:31:28.125Z,0.50
2018-02-20T02:33:57.488Z,0.60
2018-02-20T02:36:26.712Z,0.60
2018-02-20T02:38:56.852Z,0.50
2018-02-20T02:41:26.868Z,0.40
2018-02-20T02:43:56.581Z,0.40
2018-02-20T02:46:25.816Z,0.40
2018-02-20T02:48:55.332Z,0.40
2018-02-20T02:51:24.547Z,0.30
2018-02-20T02:53:53.775Z,0.30
2018-02-20T02:56:23.076Z,0.20
2018-02-20T02:58:52.303Z,0.20
2018-02-20T03:01:21.628Z,0.20
2018-02-20T03:03:50.849Z,0.30
2018-02-20T03:06:20.176Z,0.30
2018-02-20T03:08:49.413Z,0.20
2018-02-20T03:11:18.728Z,0.20
2018-02-20T03:13:47.972Z,0.20
2018-02-20T03:16:19.011Z,0.10
2018-02-20T03:18:48.297Z,0.10
2018-02-20T03:21:17.619Z,0.10
2018-02-20T03:23:46.929Z,0.10
2018-02-20T03:26:16.160Z,0.10
2018-02-20T03:28:45.572Z,0.20
2018-02-20T03:31:14.925Z,0.20
2018-02-20T03:33:44.426Z,0.20
2018-02-20T03:36:13.752Z,0.10
2018-02-20T03:38:43.800Z,0.10
2018-02-20T03:41:13.314Z,0.10
2018-02-20T03:43:42.537Z,0.20
2018-02-20T03:46:11.912Z,0.20
2018-02-20T03:48:41.132Z,0.20
2018-02-20T03:51:10.355Z,0.10
2018-02-20T03:53:40.215Z,0.10
2018-02-20T03:56:09.444Z,0.10
2018-02-20T03:58:38.819Z,0.00
2018-02-20T04:01:08.079Z,0.00
2018-02-20T04:03:37.415Z,0.10
2018-02-20T04:06:06.640Z,0.10
2018-02-20T04:08:36.028Z,0.10
2018-02-20T04:11:05.249Z,0.10
2018-02-20T04:13:34.483Z,0.10
2018-02-20T04:16:03.806Z,0.10
2018-02-20T04:18:33.104Z,0.00
2018-02-20T04:21:02.532Z,0.00
2018-02-20T04:23:31.797Z,0.00
2018-02-20T04:26:02.680Z,0.10
2018-02-20T04:28:32.069Z,0.10
2018-02-20T04:31:01.759Z,0.10
2018-02-20T04:33:31.094Z,0.00
2018-02-20T04:36:01.100Z,0.10
2018-02-20T04:38:30.409Z,0.10
2018-02-20T04:40:59.643Z,0.00
2018-02-20T04:43:28.944Z,0.00
2018-02-20T04:45:58.197Z,0.10
2018-02-20T04:48:27.523Z,0.00
2018-02-20T04:50:57.518Z,0.00
2018-02-20T04:53:26.848Z,-0.10
2018-02-20T04:55:56.088Z,-0.10
2018-02-20T04:58:25.334Z,0.00
2018-02-20T05:00:55.400Z,0.00
2018-02-20T05:03:24.636Z,-0.10
2018-02-20T05:05:55.788Z,0.00
2018-02-20T05:08:25.021Z,0.00
2018-02-20T05:10:55.163Z,0.00
2018-02-20T05:13:24.691Z,0.00
2018-02-20T05:15:54.115Z,0.00
2018-02-20T05:18:23.357Z,-0.10
2018-02-20T05:20:52.711Z,0.00
2018-02-20T05:23:21.952Z,0.00
2018-02-20T05:25:52.020Z,-0.20
2018-02-20T05:28:21.273Z,-0.10
2018-02-20T05:30:50.765Z,-0.20
2018-02-20T05:33:20.383Z,-0.30
2018-02-20T05:35:49.768Z,-0.30
2018-02-20T05:38:19.767Z,-0.20
2018-02-20T05:40:49.091Z,-0.20
2018-02-20T05:43:18.739Z,-0.20
2018-02-20T05:45:47.973Z,-0.30
2018-02-20T05:48:17.372Z,-0.20
2018-02-20T05:50:46.619Z,-0.20
2018-02-20T05:53:16.043Z,-0.20
2018-02-20T05:55:45.263Z,-0.20
2018-02-20T05:58:14.789Z,-0.20
2018-02-20T06:00:44.012Z,-0.20
2018-02-20T06:03:13.464Z,-0.20
2018-02-20T06:05:42.695Z,-0.10
2018-02-20T06:08:12.723Z,-0.10
2018-02-20T06:10:42.101Z,-0.20
2018-02-20T06:13:11.334Z,-0.10
2018-02-20T06:15:40.651Z,-0.10
2018-02-20T06:18:09.884Z,-0.10
2018-02-20T06:20:39.309Z,-0.10
2018-02-20T06:23:08.971Z,-0.10
2018-02-20T06:25:38.731Z,-0.10
2018-02-20T06:28:07.964Z,-0.10
2018-02-20T06:30:37.337Z,-0.20
2018-02-20T06:33:06.624Z,-0.30
2018-02-20T06:35:36.760Z,-0.30
2018-02-20T06:38:06.503Z,-0.40
2018-02-20T06:40:36.582Z,-0.30
2018-02-20T06:43:06.095Z,-0.20
2018-02-20T06:45:35.315Z,-0.30
2018-02-20T06:48:04.634Z,-0.20
2018-02-20T06:50:33.867Z,-0.20
2018-02-20T06:53:03.292Z,-0.10
2018-02-20T06:55:32.520Z,0.00
2018-02-20T06:58:01.895Z,0.00
2018-02-20T07:00:31.140Z,0.10
2018-02-20T07:03:00.696Z,0.10
2018-02-20T07:05:29.924Z,0.10
2018-02-20T07:07:59.750Z,0.40
2018-02-20T07:10:29.216Z,0.70
2018-02-20T07:12:58.450Z,0.50
2018-02-20T07:15:27.843Z,0.50
2018-02-20T07:17:57.822Z,0.70
2018-02-20T07:20:27.248Z,0.60
2018-02-20T07:22:56.692Z,0.80
2018-02-20T07:25:26.007Z,0.90
2018-02-20T07:27:56.149Z,1.10
2018-02-20T07:30:25.686Z,1.20
2018-02-20T07:32:55.053Z,1.20
2018-02-20T07:35:24.478Z,1.20
2018-02-20T07:37:53.700Z,1.30
2018-02-20T07:40:23.089Z,1.20
2018-02-20T07:42:52.315Z,1.20
2018-02-20T07:45:21.575Z,1.20
2018-02-20T07:47:51.108Z,1.20
2018-02-20T07:50:21.104Z,1.20
2018-02-20T07:52:51.936Z,1.10
2018-02-20T07:55:21.724Z,1.10
2018-02-20T07:57:51.361Z,1.20
2018-02-20T08:00:20.652Z,1.30
2018-02-20T08:02:50.075Z,1.40
2018-02-20T08:05:19.295Z,1.50
2018-02-20T08:07:48.672Z,1.70
2018-02-20T08:10:17.895Z,1.60
2018-02-20T08:12:47.113Z,1.60
2018-02-20T08:15:16.564Z,1.80
2018-02-20T08:17:45.791Z,1.80
2018-02-20T08:20:15.169Z,1.90
2018-02-20T08:22:44.387Z,2.00
2018-02-20T08:25:13.766Z,2.10
2018-02-20T08:27:43.786Z,2.20
2018-02-20T08:30:13.192Z,2.20
2018-02-20T08:32:42.739Z,2.40
2018-02-20T08:35:12.795Z,2.60
2018-02-20T08:37:42.019Z,2.50
2018-02-20T08:40:12.837Z,2.80
2018-02-20T08:42:42.819Z,2.70
2018-02-20T08:45:12.272Z,2.60
2018-02-20T08:47:42.279Z,2.80
2018-02-20T08:50:11.525Z,2.80
2018-02-20T08:52:40.863Z,2.80
2018-02-20T08:55:10.135Z,2.80
2018-02-20T08:57:40.169Z,2.90
2018-02-20T09:00:09.436Z,3.00
2018-02-20T09:02:38.692Z,2.90
2018-02-20T09:05:07.912Z,2.90
2018-02-20T09:07:37.950Z,3.00
2018-02-20T09:10:07.184Z,3.20
2018-02-20T09:12:37.047Z,3.30
2018-02-20T09:15:07.098Z,3.30
2018-02-20T09:17:36.465Z,3.30
2018-02-20T09:20:05.684Z,3.50
2018-02-20T09:22:35.075Z,3.60
2018-02-20T09:25:04.335Z,3.60
2018-02-20T09:27:33.670Z,3.70
2018-02-20T09:30:02.912Z,3.80
2018-02-20T09:32:33.048Z,3.70
2018-02-20T09:35:02.388Z,3.80
2018-02-20T09:37:31.623Z,3.80
2018-02-20T09:40:00.973Z,3.70
2018-02-20T09:42:30.216Z,3.60
2018-02-20T09:45:00.162Z,3.70
2018-02-20T09:47:29.388Z,3.80
2018-02-20T09:49:59.124Z,3.90
2018-02-20T09:52:28.367Z,3.80
2018-02-20T09:54:57.828Z,3.90
2018-02-20T09:57:27.040Z,4.00
2018-02-20T09:59:57.612Z,4.10
2018-02-20T10:02:28.018Z,4.10
2018-02-20T10:04:57.792Z,4.20
2018-02-20T10:07:27.007Z,4.20
2018-02-20T10:09:56.825Z,4.20
2018-02-20T10:12:26.912Z,4.10
2018-02-20T10:14:56.184Z,4.10
2018-02-20T10:17:25.538Z,4.20
2018-02-20T10:19:55.529Z,4.20
2018-02-20T10:22:24.939Z,4.20
2018-02-20T10:24:54.207Z,4.30
2018-02-20T10:27:23.558Z,4.30
2018-02-20T10:29:53.793Z,4.60
2018-02-20T10:32:23.125Z,4.60
2018-02-20T10:34:52.362Z,4.70
2018-02-20T10:37:21.759Z,4.60
2018-02-20T10:39:51.679Z,4.60
2018-02-20T10:42:21.057Z,4.50
2018-02-20T10:44:51.107Z,4.50
2018-02-20T10:47:20.406Z,4.50
2018-02-20T10:49:50.048Z,4.60
2018-02-20T10:52:20.028Z,4.60
2018-02-20T10:54:49.254Z,4.70
2018-02-20T10:57:18.476Z,4.50
2018-02-20T10:59:47.791Z,4.60
2018-02-20T11:02:17.012Z,4.60
2018-02-20T11:04:46.537Z,5.00
2018-02-20T11:07:16.072Z,5.20
2018-02-20T11:09:46.363Z,5.10
2018-02-20T11:12:15.998Z,5.10
2018-02-20T11:14:45.403Z,5.20
2018-02-20T11:17:16.135Z,5.30
2018-02-20T11:19:46.872Z,5.20
2018-02-20T11:22:16.073Z,5.20
2018-02-20T11:24:45.918Z,5.10
2018-02-20T11:27:15.277Z,5.00
2018-02-20T11:29:44.501Z,5.00
2018-02-20T11:32:13.816Z,5.10
2018-02-20T11:34:43.144Z,5.30
2018-02-20T11:37:12.559Z,5.50
2018-02-20T11:39:41.786Z,5.40
2018-02-20T11:42:11.196Z,5.50
2018-02-20T11:44:41.190Z,5.70
2018-02-20T11:47:10.606Z,5.70
2018-02-20T11:49:40.596Z,5.80
2018-02-20T11:52:09.815Z,5.80
2018-02-20T11:54:39.317Z,5.80
2018-02-20T11:57:08.539Z,5.90
2018-02-20T11:59:37.953Z,6.00
2018-02-20T12:02:07.908Z,6.20
2018-02-20T12:04:37.336Z,6.10
2018-02-20T12:07:06.556Z,6.10
2018-02-20T12:09:35.931Z,6.10
2018-02-20T12:12:05.555Z,6.20
2018-02-20T12:14:34.926Z,6.10
2018-02-20T12:17:04.148Z,6.10
2018-02-20T12:19:33.587Z,6.30
2018-02-20T12:22:03.443Z,6.30
2018-02-20T12:24:32.965Z,6.00
2018-02-20T12:27:02.185Z,5.80
2018-02-20T12:29:31.423Z,5.60
2018-02-20T12:32:01.452Z,5.40
2018-02-20T12:34:31.506Z,5.50
2018-02-20T12:37:01.443Z,5.50
2018-02-20T12:39:31.436Z,5.70
2018-02-20T12:42:00.748Z,5.70
2018-02-20T12:44:29.972Z,5.80
2018-02-20T12:46:59.275Z,5.90
2018-02-20T12:49:29.056Z,5.90
2018-02-20T12:51:58.475Z,5.70
2018-02-20T12:54:27.673Z,5.70
2018-02-20T12:56:57.791Z,5.80
2018-02-20T12:59:27.800Z,5.90
2018-02-20T13:01:57.110Z,5.80
2018-02-20T13:04:26.341Z,5.80
2018-02-20T13:06:55.636Z,5.50
2018-02-20T13:09:24.948Z,5.60
2018-02-20T13:11:54.170Z,5.40
2018-02-20T13:14:23.511Z,5.40
2018-02-20T13:16:53.520Z,5.10
2018-02-20T13:19:22.814Z,5.10
2018-02-20T13:21:52.720Z,5.00
2018-02-20T13:24:22.128Z,4.90
2018-02-20T13:26:51.356Z,4.90
2018-02-20T13:29:21.543Z,4.90
2018-02-20T13:31:50.785Z,4.70
2018-02-20T13:34:20.031Z,4.60
2018-02-20T13:36:49.355Z,4.60
2018-02-20T13:39:18.582Z,4.60
2018-02-20T13:41:48.052Z,4.70
2018-02-20T13:44:17.280Z,4.80
2018-02-20T13:46:47.477Z,4.70
2018-02-20T13:49:16.700Z,4.80
2018-02-20T13:51:46.063Z,4.80
2018-02-20T13:54:15.299Z,4.90
2018-02-20T13:56:44.693Z,5.00
2018-02-20T13:59:14.762Z,5.10
2018-02-20T14:01:44.108Z,5.00
2018-02-20T14:04:14.244Z,4.90
2018-02-20T14:06:44.336Z,4.90
2018-02-20T14:09:13.680Z,4.80
2018-02-20T14:11:42.966Z,4.80
2018-02-20T14:14:13.080Z,4.80
2018-02-20T14:16:43.078Z,4.80
2018-02-20T14:19:12.482Z,4.70
2018-02-20T14:21:41.703Z,4.50
2018-02-20T14:24:11.087Z,4.60
2018-02-20T14:26:41.531Z,4.60
2018-02-20T14:29:11.346Z,4.50
2018-02-20T14:31:41.377Z,4.60
2018-02-20T14:34:10.647Z,4.50
2018-02-20T14:36:40.669Z,4.70
2018-02-20T14:39:09.884Z,4.60
2018-02-20T14:41:39.291Z,4.60
2018-02-20T14:44:08.539Z,4.70
2018-02-20T14:46:37.855Z,4.60
2018-02-20T14:49:07.095Z,4.50
2018-02-20T14:51:36.472Z,4.50
2018-02-20T14:54:05.692Z,4.60
2018-02-20T14:56:35.485Z,4.60
2018-02-20T14:59:04.713Z,4.60
2018-02-20T15:01:33.936Z,4.60
2018-02-20T15:04:03.824Z,4.50
2018-02-20T15:06:33.135Z,4.50
2018-02-20T15:09:02.439Z,4.40
2018-02-20T15:11:31.667Z,4.40
2018-02-20T15:14:01.012Z,4.40
2018-02-20T15:16:30.212Z,4.30
2018-02-20T15:18:59.839Z,4.30
2018-02-20T15:21:29.075Z,4.30
2018-02-20T15:23:59.828Z,4.20
2018-02-20T15:26:29.051Z,4.20
2018-02-20T15:28:58.437Z,4.30
2018-02-20T15:31:28.210Z,4.30
2018-02-20T15:33:57.532Z,4.30
2018-02-20T15:36:26.974Z,4.30
2018-02-20T15:38:57.779Z,4.20
2018-02-20T15:41:27.200Z,4.10
2018-02-20T15:43:56.882Z,4.10
2018-02-20T15:46:26.202Z,4.00
2018-02-20T15:48:55.424Z,3.90
2018-02-20T15:51:24.804Z,3.80
2018-02-20T15:53:54.023Z,3.80
2018-02-20T15:56:24.049Z,3.80
2018-02-20T15:58:54.051Z,3.70
2018-02-20T16:01:23.548Z,3.60
2018-02-20T16:03:53.292Z,3.60
2018-02-20T16:06:22.508Z,3.60
2018-02-20T16:08:51.808Z,3.60
2018-02-20T16:11:21.844Z,3.50
2018-02-20T16:13:51.377Z,3.40
2018-02-20T16:16:20.600Z,3.40
2018-02-20T16:18:50.100Z,3.40
2018-02-20T16:21:19.332Z,3.30
2018-02-20T16:23:48.799Z,3.30
2018-02-20T16:26:18.428Z,3.30
2018-02-20T16:28:47.808Z,3.10
2018-02-20T16:31:17.032Z,3.20
2018-02-20T16:33:47.009Z,3.10
2018-02-20T16:36:17.404Z,3.10
2018-02-20T16:38:47.869Z,3.10
2018-02-20T16:41:17.104Z,3.00
2018-02-20T16:43:46.342Z,3.00
2018-02-20T16:46:15.780Z,2.90
2018-02-20T16:48:45.013Z,2.80
2018-02-20T16:51:14.981Z,2.80
2018-02-20T16:53:44.214Z,2.80
2018-02-20T16:56:13.628Z,2.80
2018-02-20T16:58:42.944Z,2.70
2018-02-20T17:01:12.238Z,2.60
2018-02-20T17:03:42.027Z,2.60
2018-02-20T17:06:11.397Z,2.50
2018-02-20T17:08:40.614Z,2.50
2018-02-20T17:11:09.843Z,2.50
2018-02-20T17:13:39.277Z,2.50
2018-02-20T17:16:08.515Z,2.40
2018-02-20T17:18:37.950Z,2.40
2018-02-20T17:21:07.462Z,2.30
2018-02-20T17:23:36.920Z,2.30
2018-02-20T17:26:06.918Z,2.20
2018-02-20T17:28:37.572Z,2.20
2018-02-20T17:31:08.038Z,2.10
2018-02-20T17:33:37.470Z,2.10
2018-02-20T17:36:07.424Z,2.00
2018-02-20T17:38:36.832Z,2.00
2018-02-20T17:41:06.055Z,2.00
2018-02-20T17:43:35.275Z,2.00
2018-02-20T17:46:04.585Z,2.00
2018-02-20T17:48:33.805Z,2.00
2018-02-20T17:51:03.404Z,2.00
2018-02-20T17:53:32.643Z,1.90
2018-02-20T17:56:01.965Z,1.90
2018-02-20T17:58:31.211Z,1.90
2018-02-20T18:01:00.425Z,1.90
2018-02-20T18:03:29.842Z,1.90
2018-02-20T18:05:59.064Z,1.90
2018-02-20T18:08:29.050Z,1.80
2018-02-20T18:10:58.276Z,1.80
2018-02-20T18:13:28.692Z,1.70
2018-02-20T18:15:58.755Z,1.70
2018-02-20T18:18:27.989Z,1.70
2018-02-20T18:20:57.395Z,1.70
2018-02-20T18:23:26.616Z,1.60
2018-02-20T18:25:55.948Z,1.50
2018-02-20T18:28:25.196Z,1.40
2018-02-20T18:30:55.228Z,1.40
2018-02-20T18:33:25.245Z,1.30
2018-02-20T18:35:54.678Z,1.30
2018-02-20T18:38:24.394Z,1.30
2018-02-20T18:40:53.755Z,1.30
2018-02-20T18:43:22.975Z,1.20
2018-02-20T18:45:53.268Z,1.10
2018-02-20T18:48:23.117Z,1.10
2018-02-20T18:50:52.429Z,1.20
2018-02-20T18:53:21.653Z,1.20
2018-02-20T18:55:50.959Z,1.10
2018-02-20T18:58:20.204Z,1.10
2018-02-20T19:00:50.261Z,1.10
2018-02-20T19:03:19.513Z,1.10
2018-02-20T19:05:48.868Z,1.00
2018-02-20T19:08:18.152Z,1.10
2018-02-20T19:10:47.709Z,1.00
2018-02-20T19:13:16.950Z,1.00
2018-02-20T19:15:46.270Z,1.00
2018-02-20T19:18:15.504Z,0.90
2018-02-20T19:20:44.827Z,0.90
2018-02-20T19:23:14.060Z,0.90
2018-02-20T19:25:43.511Z,0.90
2018-02-20T19:28:12.736Z,0.80
2018-02-20T19:30:42.141Z,0.80
2018-02-20T19:33:11.347Z,0.70
2018-02-20T19:35:40.901Z,0.80
2018-02-20T19:38:10.129Z,0.80
2018-02-20T19:40:39.480Z,0.70
2018-02-20T19:43:08.699Z,0.70
2018-02-20T19:45:38.131Z,0.70
2018-02-20T19:48:07.348Z,0.70
2018-02-20T19:50:36.740Z,0.80
2018-02-20T19:53:06.783Z,0.80
2018-02-20T19:55:36.155Z,0.90
2018-02-20T19:58:06.100Z,0.90
2018-02-20T20:00:36.171Z,0.90
2018-02-20T20:03:05.971Z,0.80
2018-02-20T20:05:35.407Z,0.80
2018-02-20T20:08:04.631Z,0.70
2018-02-20T20:10:34.000Z,0.80
2018-02-20T20:13:03.268Z,0.70
2018-02-20T20:15:32.639Z,0.70
2018-02-20T20:18:01.825Z,0.60
2018-02-20T20:20:37.009Z,0.70
2018-02-20T20:23:00.397Z,0.60
2018-02-20T20:25:31.244Z,0.70
2018-02-20T20:28:00.522Z,0.60
2018-02-20T20:30:30.238Z,0.60
2018-02-20T20:33:00.080Z,0.50
2018-02-20T20:35:29.956Z,0.50
2018-02-20T20:37:59.208Z,0.40
2018-02-20T20:40:28.784Z,0.40
2018-02-20T20:42:58.017Z,0.30
2018-02-20T20:45:27.397Z,0.20
2018-02-20T20:47:56.620Z,0.30
2018-02-20T20:50:25.905Z,0.30
2018-02-20T20:52:56.146Z,0.20
2018-02-20T20:55:26.311Z,0.30
2018-02-20T20:57:56.144Z,0.30
2018-02-20T21:00:25.440Z,0.20
2018-02-20T21:02:54.840Z,0.20
2018-02-20T21:05:24.135Z,0.10
2018-02-20T21:07:53.362Z,0.20
2018-02-20T21:10:22.662Z,0.20
2018-02-20T21:12:51.891Z,0.20
2018-02-20T21:15:21.363Z,0.20
2018-02-20T21:17:50.580Z,0.20
2018-02-20T21:20:19.820Z,0.10
2018-02-20T21:22:50.612Z,0.20
2018-02-20T21:25:20.411Z,0.20
2018-02-20T21:27:50.081Z,0.20
2018-02-20T21:30:20.255Z,0.10
2018-02-20T21:32:50.296Z,0.10
2018-02-20T21:35:19.656Z,0.10
2018-02-20T21:37:48.889Z,0.10
2018-02-20T21:40:18.273Z,0.10
2018-02-20T21:42:47.800Z,0.10
2018-02-20T21:45:17.560Z,0.10
2018-02-20T21:47:46.808Z,0.00
2018-02-20T21:50:16.225Z,0.00
2018-02-20T21:52:45.468Z,-0.10
2018-02-20T21:55:15.468Z,-0.10
2018-02-20T21:57:45.019Z,-0.10
2018-02-20T22:00:15.117Z,-0.10
2018-02-20T22:02:44.344Z,-0.20
2018-02-20T22:05:13.608Z,-0.10
2018-02-20T22:07:42.932Z,-0.10
2018-02-20T22:10:12.174Z,-0.10
2018-02-20T22:12:42.265Z,-0.20
2018-02-20T22:15:12.252Z,-0.20
2018-02-20T22:17:41.662Z,-0.20
2018-02-20T22:20:11.530Z,-0.20
2018-02-20T22:22:40.875Z,-0.20
2018-02-20T22:25:10.844Z,-0.20
2018-02-20T22:27:41.116Z,-0.20
2018-02-20T22:30:10.348Z,-0.20
2018-02-20T22:32:39.716Z,-0.30
2018-02-20T22:35:09.082Z,-0.30
2018-02-20T22:37:38.389Z,-0.20
2018-02-20T22:40:08.904Z,-0.30
2018-02-20T22:42:38.395Z,-0.30
2018-02-20T22:45:08.174Z,-0.30
2018-02-20T22:47:38.189Z,-0.30
2018-02-20T22:50:07.696Z,-0.40
2018-02-20T22:52:37.644Z,-0.40
2018-02-20T22:55:09.012Z,-0.40
2018-02-20T22:57:38.999Z,-0.40
2018-02-20T23:00:08.440Z,-0.40
2018-02-20T23:02:37.675Z,-0.40
2018-02-20T23:05:07.183Z,-0.40
2018-02-20T23:07:36.423Z,-0.40
2018-02-20T23:10:05.721Z,-0.40
2018-02-20T23:12:34.972Z,-0.50
2018-02-20T23:15:06.028Z,-0.50
2018-02-20T23:17:36.251Z,-0.60
2018-02-20T23:20:06.877Z,-0.60
2018-02-20T23:22:36.111Z,-0.60
2018-02-20T23:25:05.356Z,-0.50
2018-02-20T23:27:34.916Z,-0.50
2018-02-20T23:30:04.188Z,-0.60
2018-02-20T23:32:33.597Z,-0.50
2018-02-20T23:35:04.288Z,-0.60
2018-02-20T23:37:33.637Z,-0.60
2018-02-20T23:40:04.475Z,-0.60
2018-02-20T23:42:34.200Z,-0.60
2018-02-20T23:45:03.440Z,-0.60
2018-02-20T23:47:33.061Z,-0.60
2018-02-20T23:50:02.309Z,-0.50
2018-02-20T23:52:32.684Z,-0.60
2018-02-20T23:55:01.932Z,-0.60
2018-02-20T23:57:31.306Z,-0.60
